This is the latest recevied weather packets stored in our database for station/object PY1LEO-13. If no packets are shown the sender has not sent any weather packets the latest 10 day(s).
| Time | Temp. | Humidity | Pressure | Rain* | Wind** | Luminosity | Snow |
|---|---|---|---|---|---|---|---|
| 1778182669 | 30.56° C | 53% | 1012 hPa | - | - | - | - |
| 1778182369 | 31.11° C | 56% | 1012.1 hPa | - | - | - | - |
| 1778182069 | 31.11° C | 53% | 1012.2 hPa | - | - | - | - |
| 1778181769 | 30.56° C | 52% | 1012.3 hPa | - | - | - | - |
| 1778181469 | 31.11° C | 51% | 1012.2 hPa | - | - | - | - |
| 1778181169 | 31.11° C | 51% | 1012.3 hPa | - | - | - | - |
| 1778180869 | 31.11° C | 52% | 1012.3 hPa | - | - | - | - |
| 1778180572 | 30.56° C | 53% | 1012.3 hPa | - | - | - | - |
| 1778180269 | 31.11° C | 52% | 1012.3 hPa | - | - | - | - |
| 1778179969 | 30.56° C | 53% | 1012.2 hPa | - | - | - | - |
| 1778179669 | 30° C | 55% | 1012.2 hPa | - | - | - | - |
| 1778179369 | 30° C | 56% | 1012.1 hPa | - | - | - | - |
| 1778179069 | 30.56° C | 54% | 1012.1 hPa | - | - | - | - |
| 1778178769 | 30.56° C | 54% | 1012.2 hPa | - | - | - | - |
| 1778178469 | 31.67° C | 53% | 1012.3 hPa | - | - | - | - |
| 1778178169 | 31.67° C | 54% | 1012.3 hPa | - | - | - | - |
| 1778177869 | 29.44° C | 60% | 1012.2 hPa | - | - | - | - |
| 1778177569 | 30° C | 59% | 1012.3 hPa | - | - | - | - |
| 1778177269 | 31.67° C | 54% | 1012.4 hPa | - | - | - | - |
| 1778176969 | 30.56° C | 56% | 1012.3 hPa | - | - | - | - |
| 1778176669 | 30.56° C | 58% | 1012.4 hPa | - | - | - | - |
| 1778176369 | 30° C | 60% | 1012.5 hPa | - | - | - | - |
| 1778176069 | 30.56° C | 59% | 1012.6 hPa | - | - | - | - |
| 1778175769 | 29.44° C | 61% | 1012.6 hPa | - | - | - | - |
| 1778175469 | 29.44° C | 62% | 1012.6 hPa | - | - | - | - |
* Rain since midnight (hover to see other rain measurements)
** Current wind speed in m/s (hover to see current wind gust speed)